Time;durP1;ratioP1;P1;durP2;ratioP2;P2;SDS_P1;SDS_P2;PMS_P1;PMS_P2;Temp;Humidity;BMP_temperature;BMP_pressure;BME280_temperature;BME280_humidity;BME280_pressure;Samples;Min_cycle;Max_cycle;Signal;HPM_P1;HPM_P2
2022/10/15 00:00:21;;;;;;;7.00;1.75;;;;;;;13.91;100.00;99870.63;4955459;29;20538;-71
2022/10/15 00:03:26;;;;;;;12.88;7.30;;;;;;;13.88;100.00;99865.59;4954289;28;20190;-71
2022/10/15 00:06:29;;;;;;;6.38;3.67;;;;;;;13.80;100.00;99864.50;4955849;29;20061;-71
2022/10/15 00:09:33;;;;;;;15.50;4.40;;;;;;;13.85;100.00;99865.81;4955761;29;20042;-71
2022/10/15 00:12:37;;;;;;;9.57;2.50;;;;;;;13.89;100.00;99867.25;4955702;29;20078;-71
2022/10/15 00:15:40;;;;;;;3.70;1.50;;;;;;;13.98;100.00;99870.16;4955182;29;20474;-71
2022/10/15 00:18:44;;;;;;;4.32;1.30;;;;;;;14.02;99.55;99866.31;4955898;29;20125;-71
2022/10/15 00:21:47;;;;;;;;;;;;;;;13.95;99.89;99873.84;4956338;29;20046;-71
2022/10/15 00:28:45;;;;;;;;;;;;;;;13.91;100.00;99859.25;4974164;28;19921;-71
2022/10/15 00:31:48;;;;;;;4.97;3.58;;;;;;;13.99;100.00;99862.13;4962158;28;19976;-71
2022/10/15 00:34:52;;;;;;;7.55;2.45;;;;;;;13.98;100.00;99857.84;4974807;28;20098;-71
2022/10/15 00:37:55;;;;;;;5.72;2.65;;;;;;;14.01;99.60;99854.13;4974947;28;20058;-71
2022/10/15 00:41:00;;;;;;;6.45;2.75;;;;;;;13.93;100.00;99860.81;4974899;28;20438;-71
2022/10/15 00:44:22;;;;;;;5.13;2.92;;;;;;;13.90;100.00;99860.22;4962895;28;20133;-71
2022/10/15 00:47:27;;;;;;;5.05;2.85;;;;;;;13.89;100.00;99867.25;4962093;28;20045;-71
2022/10/15 00:50:30;;;;;;;5.90;2.45;;;;;;;13.98;100.00;99876.25;4960450;28;20089;-71
2022/10/15 00:53:33;;;;;;;8.65;2.33;;;;;;;13.96;99.76;99868.47;4973759;28;20053;-71
2022/10/15 00:56:40;;;;;;;2.92;1.55;;;;;;;14.00;99.79;99874.31;4973573;28;20426;-71
2022/10/15 00:59:49;;;;;;;2.60;1.42;;;;;;;14.00;99.38;99855.91;4961682;28;20057;-71
2022/10/15 01:02:52;;;;;;;5.50;1.88;;;;;;;13.99;99.14;99849.00;4950679;28;20151;-71
2022/10/15 01:05:56;;;;;;;5.85;1.63;;;;;;;13.88;100.00;99859.47;4973882;28;20065;-71
2022/10/15 01:08:59;;;;;;;8.25;1.60;;;;;;;13.89;100.00;99861.16;4973806;28;20137;-71
2022/10/15 01:12:09;;;;;;;8.23;1.90;;;;;;;13.78;100.00;99846.22;4950688;28;20050;-71
2022/10/15 01:15:32;;;;;;;4.60;1.77;;;;;;;13.86;100.00;99840.38;4961587;28;20061;-72
2022/10/15 01:18:46;;;;;;;1.98;0.98;;;;;;;13.89;100.00;99840.97;4974091;28;20045;-71
2022/10/15 01:22:00;;;;;;;2.50;1.25;;;;;;;13.92;100.00;99834.66;4974066;28;20050;-71
2022/10/15 01:25:45;;;;;;;2.15;1.20;;;;;;;13.94;99.51;99838.84;4973621;28;20418;-71
2022/10/15 01:29:01;;;;;;;2.60;1.00;;;;;;;13.97;99.63;99832.50;4954506;28;20117;-71
2022/10/15 01:32:15;;;;;;;3.08;1.50;;;;;;;13.97;99.52;99837.75;4954441;28;20109;-71
2022/10/15 01:35:40;;;;;;;2.55;1.00;;;;;;;13.99;99.32;99833.22;4942670;29;20049;-71
2022/10/15 01:38:59;;;;;;;6.43;1.40;;;;;;;13.99;99.31;99835.84;4942162;29;20046;-71
2022/10/15 01:42:16;;;;;;;2.67;1.05;;;;;;;13.97;99.51;99832.50;4941789;29;20054;-71
2022/10/15 01:45:28;;;;;;;1.88;0.90;;;;;;;13.83;100.00;99830.09;4941284;28;20050;-71
2022/10/15 01:48:53;;;;;;;3.38;2.05;;;;;;;13.80;100.00;99825.09;4954226;28;20129;-71
2022/10/15 01:52:01;;;;;;;6.10;2.40;;;;;;;13.71;100.00;99816.94;4952819;29;20050;-71
2022/10/15 01:55:09;;;;;;;2.58;1.38;;;;;;;13.81;100.00;99817.06;4953116;28;20070;-71
2022/10/15 01:58:16;;;;;;;2.25;0.80;;;;;;;13.90;100.00;99826.03;4942060;28;20101;-71
2022/10/15 02:01:20;;;;;;;4.20;0.90;;;;;;;13.96;99.94;99829.03;4952996;28;20042;-71
2022/10/15 02:04:26;;;;;;;5.95;1.00;;;;;;;13.99;99.38;99827.97;4942151;29;20050;-71
2022/10/15 02:07:39;;;;;;;5.57;1.20;;;;;;;13.99;99.44;99837.66;4954165;28;20513;-71
2022/10/15 02:10:52;;;;;;;1.90;0.90;;;;;;;13.90;100.00;99831.31;4941842;29;20046;-71
2022/10/15 02:14:04;;;;;;;2.42;0.88;;;;;;;13.84;100.00;99827.34;4941763;28;20710;-71
2022/10/15 02:17:10;;;;;;;1.90;1.00;;;;;;;13.90;100.00;99831.31;4942055;29;20074;-71
2022/10/15 02:20:35;;;;;;;2.85;1.10;;;;;;;13.87;100.00;99832.38;4953965;28;20042;-71
2022/10/15 02:24:16;;;;;;;3.38;0.82;;;;;;;13.91;100.00;99827.72;4953061;28;20053;-71
2022/10/15 02:27:19;;;;;;;3.08;0.70;;;;;;;13.86;100.00;99824.63;4930516;28;20461;-71
2022/10/15 02:30:26;;;;;;;4.05;0.68;;;;;;;13.76;100.00;99828.91;4940728;29;20106;-71
2022/10/15 02:33:32;;;;;;;3.58;0.50;;;;;;;13.78;100.00;99819.09;4941969;29;20050;-71
2022/10/15 02:36:39;;;;;;;2.75;0.70;;;;;;;13.81;100.00;99813.59;4954105;28;20576;-71
2022/10/15 02:39:43;;;;;;;2.10;0.60;;;;;;;13.81;100.00;99816.25;4941916;29;20073;-71
2022/10/15 02:42:48;;;;;;;5.38;0.90;;;;;;;13.85;100.00;99825.59;4953672;28;20130;-71
2022/10/15 02:45:52;;;;;;;6.90;0.70;;;;;;;13.88;100.00;99817.44;4952830;28;20046;-71
2022/10/15 02:48:57;;;;;;;2.35;0.57;;;;;;;13.87;100.00;99818.41;4941832;28;20402;-71
2022/10/15 02:52:00;;;;;;;3.60;0.60;;;;;;;13.86;100.00;99819.38;4941669;28;20054;-71
2022/10/15 02:55:04;;;;;;;5.00;0.68;;;;;;;13.86;100.00;99822.00;4942100;28;20406;-71
2022/10/15 02:58:07;;;;;;;3.40;0.70;;;;;;;13.92;100.00;99829.41;4945177;28;20058;-71
2022/10/15 03:01:10;;;;;;;1.73;0.82;;;;;;;13.88;100.00;99827.94;4945420;28;20045;-71
2022/10/15 03:04:14;;;;;;;1.90;0.60;;;;;;;13.85;100.00;99830.84;4945012;28;20046;-71
2022/10/15 03:07:18;;;;;;;2.28;0.65;;;;;;;13.78;100.00;99838.31;4945112;28;20118;-71
2022/10/15 03:10:23;;;;;;;1.80;0.60;;;;;;;13.83;100.00;99835.38;4944939;29;20050;-71
2022/10/15 03:13:27;;;;;;;4.53;0.50;;;;;;;13.89;100.00;99840.16;4944835;28;20514;-71
2022/10/15 03:16:32;;;;;;;3.78;0.50;;;;;;;13.93;100.00;99831.91;4944097;28;20517;-71
2022/10/15 03:19:35;;;;;;;3.55;0.60;;;;;;;13.96;99.91;99831.66;4956899;29;20046;-71
2022/10/15 03:22:38;;;;;;;3.50;0.60;;;;;;;13.94;99.87;99841.47;4944360;28;20033;-71
2022/10/15 03:25:42;;;;;;;2.08;0.52;;;;;;;13.84;100.00;99844.91;4944558;28;20041;-71
2022/10/15 03:28:52;;;;;;;6.05;0.63;;;;;;;13.70;100.00;99844.19;4956690;28;20465;-71
2022/10/15 03:32:08;;;;;;;1.67;0.68;;;;;;;13.68;100.00;99840.81;4944489;29;20478;-71
2022/10/15 03:35:12;;;;;;;3.38;0.60;;;;;;;13.75;100.00;99850.88;4944521;28;20178;-71
2022/10/15 03:38:16;;;;;;;1.52;0.60;;;;;;;13.80;100.00;99854.00;4944179;28;20113;-71
2022/10/15 03:41:20;;;;;;;6.28;0.40;;;;;;;13.87;100.00;99847.31;4944306;29;20115;-71
2022/10/15 03:44:25;;;;;;;4.70;0.68;;;;;;;13.88;100.00;99855.09;4956462;28;20090;-71
2022/10/15 03:47:39;;;;;;;1.60;0.85;;;;;;;13.95;99.75;99845.78;4944548;29;20131;-71
2022/10/15 03:50:45;;;;;;;1.58;0.30;;;;;;;13.92;100.00;99840.75;4944640;28;20050;-71
2022/10/15 03:53:49;;;;;;;3.78;0.80;;;;;;;13.95;99.73;99847.56;4943999;28;20057;-71
2022/10/15 03:56:53;;;;;;;1.10;0.32;;;;;;;13.95;99.80;99839.69;4943687;28;20451;-71
2022/10/15 04:00:11;;;;;;;7.25;0.70;;;;;;;13.96;99.76;99841.34;4944142;28;20050;-71
2022/10/15 04:03:17;;;;;;;4.65;0.80;;;;;;;13.96;99.83;99841.34;4956028;28;20077;-71
2022/10/15 04:06:20;;;;;;;5.60;1.00;;;;;;;13.90;100.00;99857.59;4943123;28;20042;-71
2022/10/15 04:09:24;;;;;;;5.22;3.38;;;;;;;13.81;100.00;99856.47;4944079;28;20082;-71
2022/10/15 04:12:30;;;;;;;4.07;1.00;;;;;;;13.81;100.00;99853.03;4955981;28;20089;-71
2022/10/15 04:15:33;;;;;;;3.15;1.05;;;;;;;13.85;100.00;99863.19;4943865;29;20059;-71
2022/10/15 04:18:41;;;;;;;5.88;1.63;;;;;;;13.82;100.00;99859.97;4943242;28;20105;-71
2022/10/15 04:21:44;;;;;;;4.25;2.55;;;;;;;13.78;100.00;99853.25;4943467;28;20106;-71
2022/10/15 04:25:01;;;;;;;5.20;3.40;;;;;;;13.84;100.00;99853.63;4943894;29;20121;-71
2022/10/15 04:28:06;;;;;;;4.45;0.80;;;;;;;13.83;100.00;99862.47;4944125;28;20086;-71
2022/10/15 04:31:11;;;;;;;2.38;1.20;;;;;;;13.80;100.00;99864.50;4943760;29;20043;-71
2022/10/15 04:34:16;;;;;;;3.85;2.20;;;;;;;13.67;100.00;99870.69;4943882;28;20050;-71
2022/10/15 04:37:19;;;;;;;11.70;7.43;;;;;;;13.56;100.00;99872.44;4943554;29;20041;-71
2022/10/15 04:40:23;;;;;;;10.25;6.00;;;;;;;13.67;100.00;99868.06;4942892;29;20073;-71
2022/10/15 04:43:28;;;;;;;9.18;3.28;;;;;;;13.72;100.00;99876.44;4955311;28;20517;-71
2022/10/15 04:46:36;;;;;;;4.95;1.60;;;;;;;13.79;100.00;99861.03;4943166;28;20054;-71
2022/10/15 04:49:48;;;;;;;3.50;1.67;;;;;;;13.80;100.00;99857.44;4943303;29;20050;-71
2022/10/15 04:53:23;;;;;;;4.50;1.90;;;;;;;13.80;100.00;99861.88;4613133;28;9999788;-71
2022/10/15 04:56:29;;;;;;;8.32;2.30;;;;;;;13.77;100.00;99856.84;4961291;28;20115;-71
2022/10/15 04:59:33;;;;;;;6.18;1.90;;;;;;;13.86;100.00;99853.53;4962437;28;20081;-71
2022/10/15 05:02:59;;;;;;;5.10;1.70;;;;;;;13.82;100.00;99867.84;4974721;28;20171;-71
2022/10/15 05:06:20;;;;;;;9.18;1.33;;;;;;;13.89;100.00;99869.06;4962195;28;20652;-71
2022/10/15 05:09:24;;;;;;;7.45;1.23;;;;;;;13.86;99.99;99871.91;4962196;28;20532;-71
2022/10/15 05:12:28;;;;;;;3.40;1.20;;;;;;;13.85;100.00;99862.38;4961988;28;20510;-71
2022/10/15 05:15:31;;;;;;;4.75;2.00;;;;;;;13.78;100.00;99869.03;4973989;28;20465;-71
2022/10/15 05:18:34;;;;;;;4.22;0.98;;;;;;;13.70;100.00;99873.06;4961846;28;20512;-71
2022/10/15 05:21:40;;;;;;;5.05;1.13;;;;;;;13.69;100.00;99865.31;4961459;28;20046;-71
2022/10/15 05:25:16;;;;;;;3.13;1.00;;;;;;;13.65;100.00;99885.72;4965570;28;20045;-71
2022/10/15 05:28:20;;;;;;;4.90;0.80;;;;;;;13.66;100.00;99882.16;4961178;28;20050;-71
2022/10/15 05:31:25;;;;;;;5.40;0.85;;;;;;;13.69;100.00;99881.09;4961571;28;20065;-71
2022/10/15 05:34:38;;;;;;;3.78;1.30;;;;;;;13.59;100.00;99886.19;4961526;28;20058;-71
2022/10/15 05:37:50;;;;;;;4.32;1.40;;;;;;;13.71;100.00;99880.00;4961769;28;20056;-71
2022/10/15 05:40:54;;;;;;;4.32;1.35;;;;;;;13.77;100.00;99893.63;4961955;28;20410;-71
2022/10/15 05:44:00;;;;;;;6.30;1.35;;;;;;;13.76;100.00;99918.25;4961397;28;20109;-71
2022/10/15 05:47:10;;;;;;;8.60;5.55;;;;;;;13.86;100.00;99919.22;4961336;28;20050;-71
2022/10/15 05:50:14;;;;;;;13.40;9.88;;;;;;;13.78;100.00;99911.06;4961173;28;20062;-71
2022/10/15 05:53:22;;;;;;;9.95;7.57;;;;;;;13.79;100.00;99915.38;4961679;28;20062;-71
2022/10/15 05:56:29;;;;;;;5.65;3.17;;;;;;;13.77;100.00;99914.66;4961569;28;20105;-71
2022/10/15 05:59:33;;;;;;;4.93;2.88;;;;;;;13.88;100.00;99918.16;4961600;28;20057;-71
2022/10/15 06:02:37;;;;;;;3.60;2.53;;;;;;;13.89;100.00;99916.34;4973285;28;20112;-71
2022/10/15 06:05:42;;;;;;;8.95;3.30;;;;;;;13.86;100.00;99909.53;4973299;28;20053;-71
2022/10/15 06:08:47;;;;;;;7.30;3.25;;;;;;;13.88;100.00;99918.16;4973133;28;20041;-71
2022/10/15 06:11:51;;;;;;;6.03;3.00;;;;;;;13.91;100.00;99917.06;4973302;28;20057;-71
2022/10/15 06:14:54;;;;;;;9.68;2.80;;;;;;;13.95;100.00;99921.16;4972924;28;20057;-72
2022/10/15 06:17:59;;;;;;;6.20;2.65;;;;;;;13.99;99.88;99917.34;4973007;28;20052;-71
2022/10/15 06:21:04;;;;;;;7.82;3.22;;;;;;;14.01;99.42;99917.19;4972977;28;20082;-71
2022/10/15 06:24:08;;;;;;;18.80;8.05;;;;;;;13.86;99.84;99924.47;4973202;28;20112;-71
2022/10/15 06:27:12;;;;;;;5.50;2.80;;;;;;;13.91;99.99;99930.19;4972798;28;20046;-71
2022/10/15 06:30:16;;;;;;;3.95;2.22;;;;;;;13.90;100.00;99928.53;4973590;28;20046;-71
2022/10/15 06:33:20;;;;;;;4.55;1.73;;;;;;;13.91;100.00;99932.81;4976701;28;20042;-71
2022/10/15 06:36:25;;;;;;;7.93;1.55;;;;;;;13.93;100.00;99944.06;4976866;28;20082;-71
2022/10/15 06:39:29;;;;;;;4.63;1.40;;;;;;;13.88;100.00;99941.81;4976962;28;20072;-71
2022/10/15 06:42:37;;;;;;;3.58;1.17;;;;;;;13.84;100.00;99942.97;4976914;28;20081;-71
2022/10/15 06:45:41;;;;;;;7.95;1.42;;;;;;;13.84;100.00;99952.66;4975710;28;20066;-71
2022/10/15 06:49:00;;;;;;;5.00;1.50;;;;;;;13.85;100.00;99964.84;4976050;28;20050;-71
2022/10/15 06:52:06;;;;;;;4.50;1.25;;;;;;;13.87;100.00;99971.66;4976393;28;20050;-71
2022/10/15 06:55:21;;;;;;;6.22;3.72;;;;;;;13.91;100.00;99967.84;4976834;28;20054;-71
2022/10/15 06:58:26;;;;;;;8.55;6.72;;;;;;;13.88;100.00;99959.34;4976484;28;20077;-71
2022/10/15 07:01:31;;;;;;;7.15;4.50;;;;;;;13.98;100.00;99962.97;4971189;28;20054;-71
2022/10/15 07:04:36;;;;;;;4.20;2.83;;;;;;;14.02;100.00;99960.94;4971331;28;20045;-71
2022/10/15 07:07:40;;;;;;;4.38;1.60;;;;;;;14.00;100.00;99961.06;4980894;28;20081;-71
2022/10/15 07:10:46;;;;;;;3.40;2.47;;;;;;;13.96;100.00;99967.50;4982571;28;20104;-72
2022/10/15 07:13:49;;;;;;;6.13;2.22;;;;;;;13.90;100.00;99973.22;4980177;28;20569;-71
2022/10/15 07:16:52;;;;;;;7.03;2.30;;;;;;;13.97;100.00;99977.06;4981974;28;20048;-71
2022/10/15 07:19:57;;;;;;;6.82;2.70;;;;;;;13.84;100.00;99979.75;4981471;28;20113;-71
2022/10/15 07:23:01;;;;;;;4.93;2.45;;;;;;;13.92;100.00;99972.16;4985553;28;20424;-71
2022/10/15 07:26:11;;;;;;;7.20;2.33;;;;;;;14.01;100.00;99965.38;4970445;28;20224;-71
2022/10/15 07:29:15;;;;;;;4.05;2.53;;;;;;;14.04;100.00;99967.78;4974907;28;20101;-71
2022/10/15 07:32:23;;;;;;;5.45;2.33;;;;;;;13.93;100.00;99967.72;4976419;28;20370;-71
2022/10/15 07:35:27;;;;;;;4.55;1.63;;;;;;;13.94;100.00;99972.03;4966151;28;20089;-71
2022/10/15 07:38:32;;;;;;;2.80;1.13;;;;;;;14.05;100.00;99982.59;4980199;28;20053;-71
2022/10/15 07:41:36;;;;;;;4.65;1.90;;;;;;;14.10;100.00;99983.09;4984080;28;20038;-71
2022/10/15 07:44:40;;;;;;;4.13;1.27;;;;;;;13.97;100.00;99992.81;4982504;28;20137;-71
2022/10/15 07:47:47;;;;;;;4.15;1.40;;;;;;;13.96;100.00;99993.78;4972676;28;20050;-71
2022/10/15 07:51:01;;;;;;;4.88;2.00;;;;;;;14.09;100.00;99999.78;4969133;28;20050;-71
2022/10/15 07:54:04;;;;;;;9.77;4.80;;;;;;;14.26;100.00;99992.41;4989751;28;20041;-71
2022/10/15 07:57:12;;;;;;;13.63;6.20;;;;;;;14.38;100.00;99989.69;4982631;28;20302;-71
2022/10/15 08:00:17;;;;;;;4.57;3.42;;;;;;;14.53;100.00;99990.34;4983420;28;20077;-71
2022/10/15 08:03:21;;;;;;;2.78;1.23;;;;;;;14.59;100.00;99987.25;4982423;28;20405;-71
2022/10/15 08:06:25;;;;;;;2.45;0.90;;;;;;;14.53;100.00;99976.34;4969550;28;20041;-71
2022/10/15 08:09:28;;;;;;;;;;;;;;;14.56;100.00;99982.22;4985632;28;20101;-71
2022/10/15 08:12:31;;;;;;;;;;;;;;;14.63;100.00;99991.31;4984136;28;20277;-71
2022/10/15 08:15:39;;;;;;;4.13;0.60;;;;;;;14.61;100.00;99995.88;4983092;28;19972;-71
2022/10/15 08:18:43;;;;;;;4.38;0.50;;;;;;;14.64;100.00;99987.72;4955733;28;20120;-71
2022/10/15 08:21:47;;;;;;;1.30;0.40;;;;;;;14.69;100.00;99991.78;4967585;28;20400;-72
2022/10/15 08:24:54;;;;;;;0.80;0.32;;;;;;;14.68;100.00;99995.34;4975297;28;20062;-71
2022/10/15 08:27:58;;;;;;;2.47;0.47;;;;;;;14.75;100.00;99984.25;4985660;28;20045;-71
2022/10/15 08:31:03;;;;;;;2.60;0.55;;;;;;;14.70;100.00;99996.09;4981112;28;20049;-71
2022/10/15 08:34:07;;;;;;;3.53;0.85;;;;;;;14.68;100.00;100000.63;4985560;28;20521;-71
2022/10/15 08:37:12;;;;;;;3.17;0.52;;;;;;;14.61;100.00;99995.00;4978139;28;20046;-71
2022/10/15 08:40:16;;;;;;;2.47;0.40;;;;;;;14.65;100.00;100004.34;4975416;28;20058;-71
2022/10/15 08:43:24;;;;;;;2.47;0.40;;;;;;;14.73;100.00;99998.47;4968356;28;20074;-71
2022/10/15 08:46:37;;;;;;;1.88;0.50;;;;;;;14.88;100.00;99986.75;4973571;28;20102;-71
2022/10/15 08:49:44;;;;;;;2.72;0.55;;;;;;;14.90;100.00;99982.22;4974008;28;20061;-71
2022/10/15 08:52:49;;;;;;;2.65;0.50;;;;;;;14.94;100.00;99986.28;4973019;28;20109;-71
2022/10/15 08:55:56;;;;;;;3.13;1.30;;;;;;;14.87;100.00;99982.47;4980830;28;20038;-71
2022/10/15 08:59:24;;;;;;;5.53;3.47;;;;;;;14.99;100.00;99993.81;4976680;28;20054;-71
2022/10/15 09:03:02;;;;;;;6.57;3.95;;;;;;;14.97;100.00;99980.78;4979152;28;20053;-71
2022/10/15 09:06:22;;;;;;;3.28;1.70;;;;;;;15.08;100.00;99986.00;4982327;28;20041;-71
2022/10/15 09:10:00;;;;;;;3.95;1.20;;;;;;;15.21;100.00;99982.41;4981060;28;20136;-71
2022/10/15 09:13:22;;;;;;;3.75;0.90;;;;;;;15.18;100.00;99987.91;4974431;28;20138;-72
2022/10/15 09:16:31;;;;;;;3.00;1.08;;;;;;;15.21;100.00;99992.94;4973650;28;20081;-71
2022/10/15 09:19:36;;;;;;;1.33;0.52;;;;;;;15.24;100.00;99995.31;4973152;28;20061;-71
2022/10/15 09:22:43;;;;;;;6.97;1.05;;;;;;;15.24;100.00;99987.41;4980979;28;20524;-71
2022/10/15 09:26:21;;;;;;;2.20;0.80;;;;;;;15.22;100.00;99994.59;4976720;28;20096;-71
2022/10/15 09:29:27;;;;;;;2.28;1.10;;;;;;;15.28;100.00;99988.84;4967413;28;20049;-71
2022/10/15 09:32:52;;;;;;;3.75;1.20;;;;;;;15.40;100.00;99982.59;4981507;28;20398;-72
2022/10/15 09:36:19;;;;;;;3.17;1.05;;;;;;;15.45;100.00;99980.44;4972928;28;20053;-71
2022/10/15 09:39:42;;;;;;;3.30;0.90;;;;;;;15.53;100.00;99983.25;4956948;28;20050;-72
2022/10/15 09:42:49;;;;;;;2.25;0.95;;;;;;;15.65;100.00;99972.69;4975713;28;20046;-72
2022/10/15 09:45:53;;;;;;;2.53;1.05;;;;;;;15.74;100.00;99982.50;4960139;28;20046;-72
2022/10/15 09:49:17;;;;;;;4.07;1.45;;;;;;;15.84;100.00;99974.69;4970427;28;20040;-72
2022/10/15 09:52:48;;;;;;;7.40;1.50;;;;;;;15.89;100.00;99980.38;4966747;28;20653;-72
2022/10/15 09:56:20;;;;;;;5.30;1.48;;;;;;;15.79;100.00;99970.63;4972090;28;20062;-72
2022/10/15 09:59:24;;;;;;;1.90;0.60;;;;;;;15.74;100.00;99971.97;4972150;28;20045;-72
2022/10/15 10:02:28;;;;;;;4.10;0.40;;;;;;;15.72;100.00;99971.25;4973384;28;20046;-72
2022/10/15 10:05:35;;;;;;;4.28;0.43;;;;;;;15.73;100.00;99978.19;4972549;28;20126;-72
2022/10/15 10:08:46;;;;;;;2.17;0.93;;;;;;;15.76;100.00;99981.44;4972947;28;20070;-71
2022/10/15 10:11:55;;;;;;;2.90;0.40;;;;;;;15.65;100.00;99985.88;4972977;28;20050;-71
2022/10/15 10:15:03;;;;;;;3.78;0.80;;;;;;;15.59;100.00;99988.03;4972584;28;20410;-72
2022/10/15 10:18:17;;;;;;;2.90;0.57;;;;;;;15.61;100.00;99984.44;4973548;28;20113;-72
2022/10/15 10:21:30;;;;;;;3.83;0.30;;;;;;;15.66;100.00;99975.19;4973598;28;20422;-72
2022/10/15 10:24:34;;;;;;;2.10;0.47;;;;;;;15.73;100.00;99983.44;4973418;28;20054;-72
2022/10/15 10:27:46;;;;;;;1.48;0.38;;;;;;;15.68;100.00;99997.03;4973144;28;20045;-72
2022/10/15 10:30:56;;;;;;;3.17;0.40;;;;;;;15.63;100.00;99987.78;4972844;28;20137;-72
2022/10/15 10:34:01;;;;;;;6.30;0.40;;;;;;;15.61;100.00;99989.72;4961371;28;20073;-72
2022/10/15 10:37:08;;;;;;;1.48;0.22;;;;;;;15.62;100.00;99991.38;4972688;28;20074;-72
2022/10/15 10:40:38;;;;;;;3.17;0.20;;;;;;;15.71;100.00;99985.41;4973104;28;20402;-72
2022/10/15 10:43:54;;;;;;;1.42;0.20;;;;;;;15.74;100.00;99982.50;4972912;28;20049;-72
2022/10/15 10:47:01;;;;;;;2.17;0.60;;;;;;;15.75;100.00;99976.25;4972893;28;20057;-72
2022/10/15 10:50:30;;;;;;;1.17;0.30;;;;;;;15.83;100.00;99973.84;4971981;28;20490;-72
2022/10/15 10:53:48;;;;;;;2.47;0.50;;;;;;;15.89;100.00;99967.19;4966669;28;20204;-72
2022/10/15 10:56:52;;;;;;;7.43;0.35;;;;;;;15.99;100.00;99966.31;4972692;28;20057;-72
2022/10/15 10:59:56;;;;;;;2.70;0.32;;;;;;;16.05;100.00;99964.97;4972726;28;20050;-72
2022/10/15 11:03:01;;;;;;;4.03;1.40;;;;;;;16.15;100.00;99957.13;4972948;28;20130;-72
2022/10/15 11:06:28;;;;;;;2.08;1.00;;;;;;;16.21;100.00;99951.34;4972334;28;20070;-72
2022/10/15 11:10:01;;;;;;;6.57;0.90;;;;;;;16.21;100.00;99941.63;4972717;28;20058;-72
2022/10/15 11:13:23;;;;;;;2.90;0.90;;;;;;;16.23;100.00;99944.09;4972809;28;20101;-72
2022/10/15 11:16:57;;;;;;;3.35;0.75;;;;;;;16.25;100.00;99931.63;4973853;28;20061;-72
2022/10/15 11:20:05;;;;;;;5.00;2.13;;;;;;;16.23;100.00;99929.13;4915451;28;20053;-72
2022/10/15 11:23:32;;;;;;;8.25;1.55;;;;;;;16.27;100.00;99925.28;4976089;28;20042;-72
2022/10/15 11:26:47;;;;;;;3.15;1.33;;;;;;;16.28;100.00;99920.81;4976008;28;20412;-72
2022/10/15 11:30:04;;;;;;;4.05;1.10;;;;;;;16.27;100.00;99929.69;4975787;28;20540;-72
2022/10/15 11:33:25;;;;;;;3.78;0.88;;;;;;;16.30;100.00;99926.78;4976116;28;20050;-72
2022/10/15 11:36:53;;;;;;;3.53;1.25;;;;;;;16.27;100.00;99927.91;4956477;28;20046;-72
2022/10/15 11:40:15;;;;;;;2.80;1.70;;;;;;;16.26;100.00;99922.75;4956386;28;20074;-72
2022/10/15 11:43:57;;;;;;;6.50;1.52;;;;;;;16.25;100.00;99921.91;4956301;28;20042;-72
2022/10/15 11:47:19;;;;;;;4.53;0.80;;;;;;;16.32;100.00;99932.78;4956392;28;20527;-72
2022/10/15 11:50:34;;;;;;;5.90;1.00;;;;;;;16.36;100.00;99928.91;4956114;28;20094;-72
2022/10/15 11:53:52;;;;;;;4.05;1.08;;;;;;;16.36;100.00;99922.78;4961585;28;20145;-72
2022/10/15 11:56:59;;;;;;;5.22;1.63;;;;;;;16.34;100.00;99909.75;4960839;28;20505;-72
2022/10/15 12:00:15;;;;;;;2.60;1.30;;;;;;;16.41;100.00;99915.31;4963748;28;20140;-72
2022/10/15 12:03:25;;;;;;;4.88;0.90;;;;;;;16.38;100.00;99905.88;4975188;28;20089;-72
2022/10/15 12:06:36;;;;;;;3.92;1.00;;;;;;;16.40;100.00;99893.38;4974872;28;20069;-72
2022/10/15 12:09:43;;;;;;;4.40;0.93;;;;;;;16.37;100.00;99893.66;4963297;28;20137;-72
2022/10/15 12:13:25;;;;;;;6.07;1.33;;;;;;;16.41;100.00;99895.06;4975673;28;20133;-72
2022/10/15 12:16:42;;;;;;;3.63;1.23;;;;;;;16.30;100.00;99897.75;4959082;28;20081;-72
2022/10/15 12:20:20;;;;;;;5.35;0.80;;;;;;;16.23;100.00;99886.06;4963226;28;20074;-72
2022/10/15 12:23:52;;;;;;;5.60;1.17;;;;;;;16.19;100.00;99880.22;4947543;28;20049;-72
2022/10/15 12:26:56;;;;;;;3.47;0.80;;;;;;;16.22;100.00;99871.22;4975075;28;20134;-72
2022/10/15 12:30:02;;;;;;;1.63;0.80;;;;;;;16.19;100.00;99869.69;4974384;28;20125;-71
2022/10/15 12:33:24;;;;;;;5.30;3.30;;;;;;;16.15;100.00;99873.56;4974997;28;20041;-72
2022/10/15 12:36:30;;;;;;;19.48;14.88;;;;;;;16.16;100.00;99869.94;4955416;28;20147;-72
2022/10/15 12:39:39;;;;;;;7.60;3.25;;;;;;;16.17;100.00;99873.41;4955682;28;20066;-72
2022/10/15 12:42:43;;;;;;;9.25;5.97;;;;;;;16.32;100.00;99874.72;4974568;28;20458;-72
2022/10/15 12:45:57;;;;;;;4.32;1.50;;;;;;;16.41;100.00;99873.13;4974627;28;20053;-72
2022/10/15 12:49:29;;;;;;;1.20;0.40;;;;;;;16.49;99.18;99874.09;4974302;28;20089;-72
2022/10/15 12:53:05;;;;;;;3.53;0.38;;;;;;;16.55;96.61;99864.81;4973843;28;20049;-72
2022/10/15 12:56:09;;;;;;;1.67;0.45;;;;;;;16.62;96.92;99865.94;4962247;28;20407;-72
2022/10/15 12:59:57;;;;;;;1.48;0.20;;;;;;;16.77;94.52;99868.25;4971966;28;20045;-72
2022/10/15 13:03:14;;;;;;;;;;;;;;;16.92;93.47;99857.16;4974563;28;20494;-72
2022/10/15 13:06:23;;;;;;;1.58;0.30;;;;;;;16.91;94.46;99865.19;4973542;28;19921;-72
2022/10/15 13:09:29;;;;;;;1.90;0.40;;;;;;;17.07;90.89;99864.66;4954724;28;20050;-72
2022/10/15 13:12:33;;;;;;;0.95;0.30;;;;;;;17.27;90.73;99869.00;4954639;28;20182;-72
2022/10/15 13:15:38;;;;;;;0.93;0.22;;;;;;;17.51;88.98;99851.84;4973011;28;20109;-72
2022/10/15 13:18:51;;;;;;;0.85;0.17;;;;;;;17.39;87.96;99865.25;4973727;28;20045;-72
2022/10/15 13:21:59;;;;;;;1.40;0.20;;;;;;;17.23;89.92;99872.91;4973693;28;20505;-71
2022/10/15 13:25:15;;;;;;;3.50;0.20;;;;;;;17.17;91.24;99876.91;4973250;28;20150;-72
2022/10/15 13:28:36;;;;;;;0.65;0.10;;;;;;;17.19;89.70;99863.56;4974165;28;20534;-71
2022/10/15 13:31:43;;;;;;;0.80;0.17;;;;;;;17.15;89.58;99868.28;4972815;28;20085;-71
2022/10/15 13:34:47;;;;;;;0.40;0.20;;;;;;;17.05;91.36;99856.06;4967484;28;20054;-71
2022/10/15 13:37:51;;;;;;;2.47;0.20;;;;;;;17.04;90.81;99860.50;4973491;28;20082;-72
2022/10/15 13:40:55;;;;;;;3.10;0.38;;;;;;;17.03;91.26;99860.63;4973949;28;20101;-71
2022/10/15 13:43:59;;;;;;;1.80;0.28;;;;;;;17.00;92.55;99864.38;4973636;28;20100;-71
2022/10/15 13:47:38;;;;;;;1.42;0.10;;;;;;;17.09;91.67;99868.00;4973436;28;20497;-71
2022/10/15 13:50:42;;;;;;;0.93;0.22;;;;;;;17.18;91.03;99883.03;4973451;28;20113;-71
2022/10/15 13:53:45;;;;;;;2.33;0.50;;;;;;;17.26;90.30;99879.69;4973691;28;20053;-71
2022/10/15 13:57:01;;;;;;;4.70;0.40;;;;;;;17.34;90.13;99875.38;4973287;28;20050;-71
2022/10/15 14:00:06;;;;;;;2.30;1.17;;;;;;;17.59;88.82;99860.75;4950572;28;20105;-71
2022/10/15 14:03:21;;;;;;;7.68;1.90;;;;;;;17.94;88.00;99859.31;4973415;28;20053;-71
2022/10/15 14:06:31;;;;;;;1.80;0.45;;;;;;;17.97;86.73;99864.31;4973007;28;20402;-71
2022/10/15 14:09:37;;;;;;;5.60;3.67;;;;;;;17.92;86.83;99871.03;4973559;28;20097;-71
2022/10/15 14:12:40;;;;;;;2.00;0.80;;;;;;;17.62;88.92;99864.94;4973427;28;20077;-71
2022/10/15 14:16:18;;;;;;;4.63;0.38;;;;;;;17.50;89.98;99866.06;4972966;28;20101;-71
2022/10/15 14:19:28;;;;;;;1.85;0.50;;;;;;;17.39;89.94;99862.59;4973092;28;20097;-71
2022/10/15 14:22:32;;;;;;;2.25;0.17;;;;;;;17.32;90.08;99868.56;4973276;28;20069;-71
2022/10/15 14:25:35;;;;;;;2.50;0.90;;;;;;;17.30;90.41;99862.59;4973191;28;20454;-71
2022/10/15 14:28:39;;;;;;;2.45;0.30;;;;;;;17.27;90.47;99850.50;4972802;28;20073;-71
2022/10/15 14:31:47;;;;;;;2.05;0.38;;;;;;;17.36;90.62;99862.03;4972920;28;20049;-71
2022/10/15 14:34:55;;;;;;;4.32;0.55;;;;;;;17.33;89.13;99860.50;4973200;28;20050;-71
2022/10/15 14:38:09;;;;;;;1.15;0.20;;;;;;;17.32;90.52;99861.47;4973074;28;20090;-71
2022/10/15 14:41:28;;;;;;;2.03;0.40;;;;;;;17.24;92.06;99865.78;4972843;28;20553;-71
2022/10/15 14:45:14;;;;;;;3.40;0.50;;;;;;;17.18;91.89;99883.03;4961035;28;20474;-71
2022/10/15 14:48:32;;;;;;;3.92;0.60;;;;;;;17.07;90.96;99886.66;4972605;28;20045;-71
2022/10/15 14:51:36;;;;;;;1.60;0.50;;;;;;;17.05;92.03;99879.81;4974110;28;20097;-71
2022/10/15 14:54:45;;;;;;;3.30;0.80;;;;;;;17.04;91.83;99876.34;4976561;28;20237;-71